createdAt,value
2022-09-16T00:00:04.094Z,15.11
2022-09-16T00:15:03.469Z,14.94
2022-09-16T00:30:06.746Z,14.83
2022-09-16T00:45:05.846Z,14.78
2022-09-16T01:00:04.878Z,14.72
2022-09-16T01:15:03.925Z,14.67
2022-09-16T01:30:09.019Z,14.61
2022-09-16T01:45:08.101Z,14.5
2022-09-16T02:00:01.238Z,14.5
2022-09-16T03:24:16.589Z,14.56
2022-09-16T03:30:00.739Z,14.56
2022-09-16T03:44:59.860Z,14.61
2022-09-16T04:00:01.901Z,14.67
2022-09-16T04:15:08.795Z,14.61
2022-09-16T04:30:00.015Z,14.61
2022-09-16T04:45:06.554Z,14.61
2022-09-16T05:00:10.121Z,14.67
2022-09-16T05:15:06.239Z,14.67
2022-09-16T05:30:02.306Z,14.67
2022-09-16T05:45:04.291Z,14.72
2022-09-16T06:01:21.749Z,14.83
2022-09-16T06:14:59.737Z,14.89
2022-09-16T06:45:06.742Z,15.11
2022-09-16T07:00:09.882Z,15.11
2022-09-16T07:15:56.341Z,15.22
2022-09-16T07:30:00.749Z,15.28
2022-09-16T07:45:05.583Z,15.28
2022-09-16T08:00:09.142Z,15.33
2022-09-16T08:30:04.235Z,15.44
2022-09-16T08:45:06.305Z,15.78
2022-09-16T09:00:09.875Z,15.83
2022-09-16T09:14:59.976Z,15.89
2022-09-16T09:30:00.583Z,15.94
2022-09-16T09:45:02.119Z,16.17
2022-09-16T10:00:06.387Z,16.33
2022-09-16T10:15:14.962Z,16.33
2022-09-16T10:30:03.153Z,16.56
2022-09-16T10:45:00.755Z,16.5
2022-09-16T11:00:10.389Z,16.67
2022-09-16T11:15:03.470Z,16.72
2022-09-16T11:30:01.054Z,16.67
2022-09-16T11:45:00.192Z,16.39
2022-09-16T12:00:06.795Z,15.83
2022-09-16T12:15:12.648Z,15.61
2022-09-16T12:31:41.098Z,15.33
2022-09-16T12:45:00.469Z,15.33
2022-09-16T13:00:05.047Z,15.17
2022-09-16T13:15:01.021Z,14.94
2022-09-16T13:29:59.004Z,14.83
2022-09-16T13:45:06.697Z,14.72
2022-09-16T14:00:10.311Z,14.61
2022-09-16T14:15:15.579Z,14.33
2022-09-16T14:30:10.058Z,14.22
2022-09-16T14:45:01.641Z,14.22
2022-09-16T15:00:03.737Z,14.17
2022-09-16T15:14:59.211Z,14.11
2022-09-16T15:30:09.807Z,14.17
2022-09-16T15:45:02.684Z,14
2022-09-16T16:00:10.800Z,13.78
2022-09-16T16:15:02.041Z,13.61
2022-09-16T16:30:04.121Z,13.56
2022-09-16T16:45:09.239Z,13.39
2022-09-16T17:00:06.874Z,13.33
2022-09-16T17:15:25.368Z,13.33
2022-09-16T17:30:03.187Z,13.39
2022-09-16T17:45:01.454Z,13.33
2022-09-16T18:00:12.141Z,13.28
2022-09-16T18:15:11.301Z,13.11
2022-09-16T18:30:08.214Z,13.11
2022-09-16T18:45:05.822Z,13.06
2022-09-16T19:00:09.420Z,13
2022-09-16T19:15:02.509Z,13
2022-09-16T19:30:01.651Z,12.94
2022-09-16T19:45:05.235Z,13
2022-09-16T20:00:05.796Z,13
2022-09-16T20:30:24.585Z,12.78
2022-09-16T20:45:03.344Z,12.72
2022-09-16T21:00:02.553Z,12.67
2022-09-16T21:15:09.127Z,12.67
2022-09-16T21:45:07.373Z,12.61
2022-09-16T22:00:03.357Z,12.61
2022-09-16T22:14:59.428Z,12.56
2022-09-16T22:30:07.542Z,12.5
2022-09-16T22:45:00.678Z,12.28
2022-09-16T23:00:04.317Z,12.17
2022-09-16T23:15:06.314Z,12
2022-09-16T23:30:03.917Z,11.67
2022-09-16T23:45:03.027Z,11.67
